sensor_id;sensor_type;location;lat;lon;timestamp;P1;durP1;ratioP1;P2;durP2;ratioP2
56599;SDS011;51832;48.152;11.530;2023-01-04T00:02:01;6.25;;;4.15;;
56599;SDS011;51832;48.152;11.530;2023-01-04T00:07:01;6.47;;;3.92;;
56599;SDS011;51832;48.152;11.530;2023-01-04T00:12:02;6.57;;;4.00;;
56599;SDS011;51832;48.152;11.530;2023-01-04T00:17:02;5.30;;;4.13;;
56599;SDS011;51832;48.152;11.530;2023-01-04T00:22:03;5.72;;;3.88;;
56599;SDS011;51832;48.152;11.530;2023-01-04T00:27:03;5.35;;;3.53;;
56599;SDS011;51832;48.152;11.530;2023-01-04T00:32:04;4.75;;;3.72;;
56599;SDS011;51832;48.152;11.530;2023-01-04T00:37:05;6.05;;;3.75;;
56599;SDS011;51832;48.152;11.530;2023-01-04T00:42:06;7.90;;;4.22;;
56599;SDS011;51832;48.152;11.530;2023-01-04T00:47:06;7.60;;;3.55;;
56599;SDS011;51832;48.152;11.530;2023-01-04T00:52:07;6.68;;;3.92;;
56599;SDS011;51832;48.152;11.530;2023-01-04T00:57:08;5.47;;;3.75;;
56599;SDS011;51832;48.152;11.530;2023-01-04T01:02:09;8.10;;;4.68;;
56599;SDS011;51832;48.152;11.530;2023-01-04T01:07:09;6.82;;;4.80;;
56599;SDS011;51832;48.152;11.530;2023-01-04T01:12:10;7.40;;;4.90;;
56599;SDS011;51832;48.152;11.530;2023-01-04T01:17:10;7.35;;;4.53;;
56599;SDS011;51832;48.152;11.530;2023-01-04T01:22:11;5.80;;;4.30;;
56599;SDS011;51832;48.152;11.530;2023-01-04T01:27:11;5.53;;;4.00;;
56599;SDS011;51832;48.152;11.530;2023-01-04T01:32:12;5.47;;;3.72;;
56599;SDS011;51832;48.152;11.530;2023-01-04T01:37:12;5.47;;;3.58;;
56599;SDS011;51832;48.152;11.530;2023-01-04T01:42:19;7.68;;;4.93;;
56599;SDS011;51832;48.152;11.530;2023-01-04T01:47:22;8.35;;;5.43;;
56599;SDS011;51832;48.152;11.530;2023-01-04T01:52:28;9.75;;;5.75;;
56599;SDS011;51832;48.152;11.530;2023-01-04T01:57:32;10.05;;;6.38;;
56599;SDS011;51832;48.152;11.530;2023-01-04T02:02:38;12.43;;;7.30;;
56599;SDS011;51832;48.152;11.530;2023-01-04T02:07:44;13.15;;;7.68;;
56599;SDS011;51832;48.152;11.530;2023-01-04T02:12:45;11.43;;;6.63;;
56599;SDS011;51832;48.152;11.530;2023-01-04T02:17:52;12.70;;;7.38;;
56599;SDS011;51832;48.152;11.530;2023-01-04T02:39:03;11.90;;;7.35;;
56599;SDS011;51832;48.152;11.530;2023-01-04T02:44:12;12.05;;;6.63;;
56599;SDS011;51832;48.152;11.530;2023-01-04T02:49:34;11.20;;;6.80;;
56599;SDS011;51832;48.152;11.530;2023-01-04T02:54:54;13.88;;;6.43;;
56599;SDS011;51832;48.152;11.530;2023-01-04T03:00:05;11.52;;;7.07;;
56599;SDS011;51832;48.152;11.530;2023-01-04T03:10:44;13.20;;;7.63;;
56599;SDS011;51832;48.152;11.530;2023-01-04T03:15:57;10.38;;;6.53;;
56599;SDS011;51832;48.152;11.530;2023-01-04T03:21:06;16.35;;;8.30;;
56599;SDS011;51832;48.152;11.530;2023-01-04T03:26:13;12.60;;;8.15;;
56599;SDS011;51832;48.152;11.530;2023-01-04T03:31:37;13.45;;;7.20;;
56599;SDS011;51832;48.152;11.530;2023-01-04T03:37:10;13.43;;;7.80;;
56599;SDS011;51832;48.152;11.530;2023-01-04T03:42:21;12.20;;;7.57;;
56599;SDS011;51832;48.152;11.530;2023-01-04T03:47:56;13.48;;;7.15;;
56599;SDS011;51832;48.152;11.530;2023-01-04T03:53:27;12.82;;;7.70;;
56599;SDS011;51832;48.152;11.530;2023-01-04T03:58:32;11.15;;;7.07;;
56599;SDS011;51832;48.152;11.530;2023-01-04T04:03:33;11.43;;;7.20;;
56599;SDS011;51832;48.152;11.530;2023-01-04T04:08:52;11.70;;;7.13;;
56599;SDS011;51832;48.152;11.530;2023-01-04T04:13:54;11.50;;;6.45;;
56599;SDS011;51832;48.152;11.530;2023-01-04T04:18:54;11.55;;;6.32;;
56599;SDS011;51832;48.152;11.530;2023-01-04T04:23:55;11.65;;;6.32;;
56599;SDS011;51832;48.152;11.530;2023-01-04T04:28:56;10.13;;;6.65;;
56599;SDS011;51832;48.152;11.530;2023-01-04T04:33:56;10.38;;;6.35;;
56599;SDS011;51832;48.152;11.530;2023-01-04T04:38:57;9.27;;;5.18;;
56599;SDS011;51832;48.152;11.530;2023-01-04T04:43:57;7.13;;;4.50;;
56599;SDS011;51832;48.152;11.530;2023-01-04T04:48:58;6.88;;;4.25;;
56599;SDS011;51832;48.152;11.530;2023-01-04T04:53:59;6.50;;;4.32;;
56599;SDS011;51832;48.152;11.530;2023-01-04T04:58:59;4.93;;;3.40;;
56599;SDS011;51832;48.152;11.530;2023-01-04T05:04:00;4.65;;;3.22;;
56599;SDS011;51832;48.152;11.530;2023-01-04T05:09:00;4.30;;;3.33;;
56599;SDS011;51832;48.152;11.530;2023-01-04T05:14:01;3.75;;;2.95;;
56599;SDS011;51832;48.152;11.530;2023-01-04T05:19:01;4.15;;;2.78;;
56599;SDS011;51832;48.152;11.530;2023-01-04T05:24:02;3.58;;;2.80;;
56599;SDS011;51832;48.152;11.530;2023-01-04T05:29:03;4.32;;;3.00;;
56599;SDS011;51832;48.152;11.530;2023-01-04T05:34:03;3.83;;;2.85;;
56599;SDS011;51832;48.152;11.530;2023-01-04T05:39:04;3.10;;;2.70;;
56599;SDS011;51832;48.152;11.530;2023-01-04T05:44:04;4.18;;;2.67;;
56599;SDS011;51832;48.152;11.530;2023-01-04T05:49:05;3.25;;;2.53;;
56599;SDS011;51832;48.152;11.530;2023-01-04T05:54:05;4.72;;;2.60;;
56599;SDS011;51832;48.152;11.530;2023-01-04T05:59:06;4.10;;;2.60;;
56599;SDS011;51832;48.152;11.530;2023-01-04T06:04:06;2.97;;;2.53;;
56599;SDS011;51832;48.152;11.530;2023-01-04T06:09:07;3.15;;;2.15;;
56599;SDS011;51832;48.152;11.530;2023-01-04T06:14:07;3.13;;;2.55;;
56599;SDS011;51832;48.152;11.530;2023-01-04T06:19:08;3.05;;;2.38;;
56599;SDS011;51832;48.152;11.530;2023-01-04T06:24:09;3.10;;;2.40;;
56599;SDS011;51832;48.152;11.530;2023-01-04T06:29:10;3.70;;;2.72;;
56599;SDS011;51832;48.152;11.530;2023-01-04T06:34:12;3.20;;;2.53;;
56599;SDS011;51832;48.152;11.530;2023-01-04T06:39:13;3.50;;;2.53;;
56599;SDS011;51832;48.152;11.530;2023-01-04T06:44:14;4.75;;;2.63;;
56599;SDS011;51832;48.152;11.530;2023-01-04T06:49:14;2.40;;;2.20;;
56599;SDS011;51832;48.152;11.530;2023-01-04T06:54:15;3.67;;;2.75;;
56599;SDS011;51832;48.152;11.530;2023-01-04T06:59:15;4.72;;;2.60;;
56599;SDS011;51832;48.152;11.530;2023-01-04T07:04:16;3.03;;;2.10;;
56599;SDS011;51832;48.152;11.530;2023-01-04T07:09:16;3.97;;;2.60;;
56599;SDS011;51832;48.152;11.530;2023-01-04T07:14:17;3.53;;;2.63;;
56599;SDS011;51832;48.152;11.530;2023-01-04T07:19:17;4.18;;;2.80;;
56599;SDS011;51832;48.152;11.530;2023-01-04T07:24:18;3.17;;;2.15;;
56599;SDS011;51832;48.152;11.530;2023-01-04T07:29:19;3.17;;;2.40;;
56599;SDS011;51832;48.152;11.530;2023-01-04T07:34:22;4.15;;;2.17;;
56599;SDS011;51832;48.152;11.530;2023-01-04T07:39:23;3.27;;;2.67;;
56599;SDS011;51832;48.152;11.530;2023-01-04T07:44:24;4.28;;;2.50;;
56599;SDS011;51832;48.152;11.530;2023-01-04T07:49:26;3.95;;;2.53;;
56599;SDS011;51832;48.152;11.530;2023-01-04T07:54:27;2.90;;;2.25;;
56599;SDS011;51832;48.152;11.530;2023-01-04T07:59:27;3.38;;;2.55;;
56599;SDS011;51832;48.152;11.530;2023-01-04T08:04:28;3.13;;;2.20;;
56599;SDS011;51832;48.152;11.530;2023-01-04T08:09:29;3.90;;;2.08;;
56599;SDS011;51832;48.152;11.530;2023-01-04T08:14:29;5.00;;;2.65;;
56599;SDS011;51832;48.152;11.530;2023-01-04T08:19:30;2.67;;;2.15;;
56599;SDS011;51832;48.152;11.530;2023-01-04T08:24:30;2.92;;;2.05;;
56599;SDS011;51832;48.152;11.530;2023-01-04T08:29:31;2.97;;;1.95;;
56599;SDS011;51832;48.152;11.530;2023-01-04T08:34:31;3.95;;;2.55;;
56599;SDS011;51832;48.152;11.530;2023-01-04T08:39:32;3.08;;;2.17;;
56599;SDS011;51832;48.152;11.530;2023-01-04T08:44:35;2.92;;;1.70;;
56599;SDS011;51832;48.152;11.530;2023-01-04T08:49:35;3.00;;;2.05;;
56599;SDS011;51832;48.152;11.530;2023-01-04T08:54:36;2.00;;;1.75;;
56599;SDS011;51832;48.152;11.530;2023-01-04T08:59:36;2.47;;;2.05;;
56599;SDS011;51832;48.152;11.530;2023-01-04T09:04:37;2.40;;;2.00;;
56599;SDS011;51832;48.152;11.530;2023-01-04T09:09:37;4.45;;;1.75;;
56599;SDS011;51832;48.152;11.530;2023-01-04T09:14:38;2.55;;;1.70;;
56599;SDS011;51832;48.152;11.530;2023-01-04T09:19:39;3.60;;;1.65;;
56599;SDS011;51832;48.152;11.530;2023-01-04T09:24:39;1.83;;;1.50;;
56599;SDS011;51832;48.152;11.530;2023-01-04T09:29:40;7.22;;;4.25;;
56599;SDS011;51832;48.152;11.530;2023-01-04T09:34:40;3.03;;;1.55;;
56599;SDS011;51832;48.152;11.530;2023-01-04T09:39:41;2.80;;;1.88;;
56599;SDS011;51832;48.152;11.530;2023-01-04T09:44:45;3.22;;;1.65;;
56599;SDS011;51832;48.152;11.530;2023-01-04T09:50:01;2.75;;;1.60;;
56599;SDS011;51832;48.152;11.530;2023-01-04T10:00:34;2.30;;;1.52;;
56599;SDS011;51832;48.152;11.530;2023-01-04T10:05:44;4.35;;;1.60;;
56599;SDS011;51832;48.152;11.530;2023-01-04T10:10:46;1.48;;;1.23;;
56599;SDS011;51832;48.152;11.530;2023-01-04T10:21:03;2.38;;;1.40;;
56599;SDS011;51832;48.152;11.530;2023-01-04T10:26:14;2.60;;;1.30;;
56599;SDS011;51832;48.152;11.530;2023-01-04T10:31:40;1.45;;;1.27;;
56599;SDS011;51832;48.152;11.530;2023-01-04T10:36:45;2.00;;;1.20;;
56599;SDS011;51832;48.152;11.530;2023-01-04T10:52:05;1.58;;;1.10;;
56599;SDS011;51832;48.152;11.530;2023-01-04T10:57:11;1.55;;;0.90;;
56599;SDS011;51832;48.152;11.530;2023-01-04T11:02:26;1.65;;;1.08;;
56599;SDS011;51832;48.152;11.530;2023-01-04T11:07:55;1.00;;;0.90;;
56599;SDS011;51832;48.152;11.530;2023-01-04T11:13:04;1.45;;;1.00;;
56599;SDS011;51832;48.152;11.530;2023-01-04T11:18:05;1.77;;;1.05;;
56599;SDS011;51832;48.152;11.530;2023-01-04T11:28:17;0.82;;;0.82;;
56599;SDS011;51832;48.152;11.530;2023-01-04T11:33:23;1.38;;;0.85;;
56599;SDS011;51832;48.152;11.530;2023-01-04T11:38:27;1.15;;;0.90;;
56599;SDS011;51832;48.152;11.530;2023-01-04T11:43:30;0.77;;;0.73;;
56599;SDS011;51832;48.152;11.530;2023-01-04T11:48:42;1.02;;;0.70;;
56599;SDS011;51832;48.152;11.530;2023-01-04T11:53:44;2.08;;;0.70;;
56599;SDS011;51832;48.152;11.530;2023-01-04T11:59:05;0.90;;;0.88;;
56599;SDS011;51832;48.152;11.530;2023-01-04T12:09:23;0.80;;;0.80;;
56599;SDS011;51832;48.152;11.530;2023-01-04T12:14:31;1.00;;;0.80;;
56599;SDS011;51832;48.152;11.530;2023-01-04T12:19:36;0.98;;;0.73;;
56599;SDS011;51832;48.152;11.530;2023-01-04T12:24:41;1.02;;;0.82;;
56599;SDS011;51832;48.152;11.530;2023-01-04T12:29:52;1.25;;;0.80;;
56599;SDS011;51832;48.152;11.530;2023-01-04T12:34:55;1.40;;;0.60;;
56599;SDS011;51832;48.152;11.530;2023-01-04T12:39:56;2.13;;;0.90;;
56599;SDS011;51832;48.152;11.530;2023-01-04T12:44:57;1.67;;;0.70;;
56599;SDS011;51832;48.152;11.530;2023-01-04T12:50:00;1.25;;;0.80;;
56599;SDS011;51832;48.152;11.530;2023-01-04T13:11:01;1.15;;;0.52;;
56599;SDS011;51832;48.152;11.530;2023-01-04T13:21:33;2.20;;;0.75;;
56599;SDS011;51832;48.152;11.530;2023-01-04T13:26:39;0.90;;;0.70;;
56599;SDS011;51832;48.152;11.530;2023-01-04T13:31:57;1.25;;;0.77;;
56599;SDS011;51832;48.152;11.530;2023-01-04T13:41:58;0.77;;;0.63;;
56599;SDS011;51832;48.152;11.530;2023-01-04T13:46:59;2.15;;;0.80;;
56599;SDS011;51832;48.152;11.530;2023-01-04T13:52:13;0.50;;;0.50;;
56599;SDS011;51832;48.152;11.530;2023-01-04T13:57:19;0.80;;;0.60;;
56599;SDS011;51832;48.152;11.530;2023-01-04T14:02:20;1.75;;;0.57;;
56599;SDS011;51832;48.152;11.530;2023-01-04T14:07:21;0.40;;;0.40;;
56599;SDS011;51832;48.152;11.530;2023-01-04T14:12:24;0.90;;;0.50;;
56599;SDS011;51832;48.152;11.530;2023-01-04T14:17:35;1.02;;;0.50;;
56599;SDS011;51832;48.152;11.530;2023-01-04T14:27:47;0.52;;;0.50;;
56599;SDS011;51832;48.152;11.530;2023-01-04T14:38:14;1.35;;;0.75;;
56599;SDS011;51832;48.152;11.530;2023-01-04T14:43:32;0.47;;;0.35;;
56599;SDS011;51832;48.152;11.530;2023-01-04T14:48:42;1.25;;;0.77;;
56599;SDS011;51832;48.152;11.530;2023-01-04T14:53:42;0.43;;;0.40;;
56599;SDS011;51832;48.152;11.530;2023-01-04T14:58:43;3.22;;;0.55;;
56599;SDS011;51832;48.152;11.530;2023-01-04T15:03:44;0.40;;;0.40;;
56599;SDS011;51832;48.152;11.530;2023-01-04T15:08:45;0.40;;;0.40;;
56599;SDS011;51832;48.152;11.530;2023-01-04T15:13:46;0.75;;;0.52;;
56599;SDS011;51832;48.152;11.530;2023-01-04T15:18:46;0.95;;;0.50;;
56599;SDS011;51832;48.152;11.530;2023-01-04T15:23:47;0.50;;;0.38;;
56599;SDS011;51832;48.152;11.530;2023-01-04T15:28:48;0.40;;;0.40;;
56599;SDS011;51832;48.152;11.530;2023-01-04T15:33:48;0.45;;;0.40;;
56599;SDS011;51832;48.152;11.530;2023-01-04T15:38:52;0.45;;;0.43;;
56599;SDS011;51832;48.152;11.530;2023-01-04T15:43:53;1.30;;;0.77;;
56599;SDS011;51832;48.152;11.530;2023-01-04T15:48:53;0.45;;;0.45;;
56599;SDS011;51832;48.152;11.530;2023-01-04T15:53:54;0.73;;;0.50;;
56599;SDS011;51832;48.152;11.530;2023-01-04T15:58:55;0.63;;;0.40;;
56599;SDS011;51832;48.152;11.530;2023-01-04T16:03:56;0.50;;;0.40;;
56599;SDS011;51832;48.152;11.530;2023-01-04T16:08:56;1.35;;;0.50;;
56599;SDS011;51832;48.152;11.530;2023-01-04T16:13:58;1.13;;;0.40;;
56599;SDS011;51832;48.152;11.530;2023-01-04T16:18:59;0.68;;;0.50;;
56599;SDS011;51832;48.152;11.530;2023-01-04T16:24:01;0.60;;;0.30;;
56599;SDS011;51832;48.152;11.530;2023-01-04T16:29:01;0.40;;;0.40;;
56599;SDS011;51832;48.152;11.530;2023-01-04T16:34:03;0.45;;;0.45;;
56599;SDS011;51832;48.152;11.530;2023-01-04T16:39:04;0.40;;;0.40;;
56599;SDS011;51832;48.152;11.530;2023-01-04T16:44:04;0.60;;;0.50;;
56599;SDS011;51832;48.152;11.530;2023-01-04T16:49:06;0.50;;;0.40;;
56599;SDS011;51832;48.152;11.530;2023-01-04T16:54:10;0.35;;;0.30;;
56599;SDS011;51832;48.152;11.530;2023-01-04T16:59:12;0.50;;;0.47;;
56599;SDS011;51832;48.152;11.530;2023-01-04T17:04:15;0.40;;;0.40;;
56599;SDS011;51832;48.152;11.530;2023-01-04T17:09:16;0.40;;;0.40;;
56599;SDS011;51832;48.152;11.530;2023-01-04T17:19:20;0.45;;;0.40;;
56599;SDS011;51832;48.152;11.530;2023-01-04T17:24:20;0.38;;;0.38;;
56599;SDS011;51832;48.152;11.530;2023-01-04T17:29:21;0.77;;;0.77;;
56599;SDS011;51832;48.152;11.530;2023-01-04T17:34:21;0.30;;;0.30;;
56599;SDS011;51832;48.152;11.530;2023-01-04T17:39:22;0.50;;;0.50;;
56599;SDS011;51832;48.152;11.530;2023-01-04T17:44:22;0.60;;;0.43;;
56599;SDS011;51832;48.152;11.530;2023-01-04T17:49:23;0.60;;;0.40;;
56599;SDS011;51832;48.152;11.530;2023-01-04T17:54:23;0.90;;;0.40;;
56599;SDS011;51832;48.152;11.530;2023-01-04T17:59:24;0.40;;;0.40;;
56599;SDS011;51832;48.152;11.530;2023-01-04T18:04:25;1.95;;;0.65;;
56599;SDS011;51832;48.152;11.530;2023-01-04T18:09:25;1.42;;;0.50;;
56599;SDS011;51832;48.152;11.530;2023-01-04T18:14:26;0.90;;;0.60;;
56599;SDS011;51832;48.152;11.530;2023-01-04T18:19:28;0.80;;;0.50;;
56599;SDS011;51832;48.152;11.530;2023-01-04T18:24:29;1.33;;;0.70;;
56599;SDS011;51832;48.152;11.530;2023-01-04T18:29:30;0.30;;;0.30;;
56599;SDS011;51832;48.152;11.530;2023-01-04T18:34:31;0.47;;;0.40;;
56599;SDS011;51832;48.152;11.530;2023-01-04T18:39:31;0.88;;;0.60;;
56599;SDS011;51832;48.152;11.530;2023-01-04T18:44:32;1.13;;;0.98;;
56599;SDS011;51832;48.152;11.530;2023-01-04T18:49:32;0.80;;;0.65;;
56599;SDS011;51832;48.152;11.530;2023-01-04T18:54:33;0.90;;;0.60;;
56599;SDS011;51832;48.152;11.530;2023-01-04T18:59:33;0.60;;;0.60;;
56599;SDS011;51832;48.152;11.530;2023-01-04T19:04:34;0.70;;;0.52;;
56599;SDS011;51832;48.152;11.530;2023-01-04T19:09:35;0.50;;;0.50;;
56599;SDS011;51832;48.152;11.530;2023-01-04T19:14:36;0.50;;;0.50;;
56599;SDS011;51832;48.152;11.530;2023-01-04T19:19:36;0.82;;;0.82;;
56599;SDS011;51832;48.152;11.530;2023-01-04T19:24:37;1.67;;;0.70;;
56599;SDS011;51832;48.152;11.530;2023-01-04T19:29:37;0.52;;;0.45;;
56599;SDS011;51832;48.152;11.530;2023-01-04T19:34:38;0.85;;;0.50;;
56599;SDS011;51832;48.152;11.530;2023-01-04T19:39:38;1.02;;;0.65;;
56599;SDS011;51832;48.152;11.530;2023-01-04T19:44:39;0.60;;;0.57;;
56599;SDS011;51832;48.152;11.530;2023-01-04T19:49:39;1.15;;;0.63;;
56599;SDS011;51832;48.152;11.530;2023-01-04T19:54:40;1.33;;;0.70;;
56599;SDS011;51832;48.152;11.530;2023-01-04T19:59:41;1.27;;;0.55;;
56599;SDS011;51832;48.152;11.530;2023-01-04T20:04:41;1.52;;;0.50;;
56599;SDS011;51832;48.152;11.530;2023-01-04T20:09:42;0.80;;;0.55;;
56599;SDS011;51832;48.152;11.530;2023-01-04T20:14:42;0.55;;;0.50;;
56599;SDS011;51832;48.152;11.530;2023-01-04T20:19:43;0.57;;;0.50;;
56599;SDS011;51832;48.152;11.530;2023-01-04T20:24:44;0.50;;;0.50;;
56599;SDS011;51832;48.152;11.530;2023-01-04T20:29:44;0.60;;;0.60;;
56599;SDS011;51832;48.152;11.530;2023-01-04T20:34:45;1.73;;;0.70;;
56599;SDS011;51832;48.152;11.530;2023-01-04T20:39:45;0.70;;;0.50;;
56599;SDS011;51832;48.152;11.530;2023-01-04T20:44:46;0.60;;;0.60;;
56599;SDS011;51832;48.152;11.530;2023-01-04T20:49:47;0.40;;;0.40;;
56599;SDS011;51832;48.152;11.530;2023-01-04T20:54:48;0.85;;;0.60;;
56599;SDS011;51832;48.152;11.530;2023-01-04T20:59:49;1.02;;;0.82;;
56599;SDS011;51832;48.152;11.530;2023-01-04T21:04:49;0.40;;;0.40;;
56599;SDS011;51832;48.152;11.530;2023-01-04T21:09:50;0.47;;;0.40;;
56599;SDS011;51832;48.152;11.530;2023-01-04T21:14:50;1.00;;;0.55;;
56599;SDS011;51832;48.152;11.530;2023-01-04T21:19:51;0.40;;;0.40;;
56599;SDS011;51832;48.152;11.530;2023-01-04T21:24:51;0.60;;;0.52;;
56599;SDS011;51832;48.152;11.530;2023-01-04T21:29:52;0.32;;;0.32;;
56599;SDS011;51832;48.152;11.530;2023-01-04T21:34:52;0.77;;;0.50;;
56599;SDS011;51832;48.152;11.530;2023-01-04T21:39:53;0.35;;;0.35;;
56599;SDS011;51832;48.152;11.530;2023-01-04T21:44:53;0.40;;;0.40;;
56599;SDS011;51832;48.152;11.530;2023-01-04T21:49:54;0.40;;;0.40;;
56599;SDS011;51832;48.152;11.530;2023-01-04T21:54:54;0.43;;;0.35;;
56599;SDS011;51832;48.152;11.530;2023-01-04T21:59:56;0.50;;;0.40;;
56599;SDS011;51832;48.152;11.530;2023-01-04T22:04:58;0.67;;;0.47;;
56599;SDS011;51832;48.152;11.530;2023-01-04T22:10:01;0.93;;;0.52;;
56599;SDS011;51832;48.152;11.530;2023-01-04T22:15:02;0.88;;;0.50;;
56599;SDS011;51832;48.152;11.530;2023-01-04T22:20:05;0.65;;;0.65;;
56599;SDS011;51832;48.152;11.530;2023-01-04T22:25:05;0.40;;;0.40;;
56599;SDS011;51832;48.152;11.530;2023-01-04T22:30:07;0.55;;;0.55;;
56599;SDS011;51832;48.152;11.530;2023-01-04T22:35:08;0.52;;;0.43;;
56599;SDS011;51832;48.152;11.530;2023-01-04T22:40:09;0.40;;;0.40;;
56599;SDS011;51832;48.152;11.530;2023-01-04T22:45:11;0.50;;;0.50;;
56599;SDS011;51832;48.152;11.530;2023-01-04T22:50:12;0.55;;;0.55;;
56599;SDS011;51832;48.152;11.530;2023-01-04T22:55:12;0.40;;;0.40;;
56599;SDS011;51832;48.152;11.530;2023-01-04T23:00:13;0.40;;;0.40;;
56599;SDS011;51832;48.152;11.530;2023-01-04T23:05:14;0.85;;;0.57;;
56599;SDS011;51832;48.152;11.530;2023-01-04T23:10:15;0.50;;;0.50;;
56599;SDS011;51832;48.152;11.530;2023-01-04T23:15:16;0.60;;;0.47;;
56599;SDS011;51832;48.152;11.530;2023-01-04T23:20:16;0.93;;;0.40;;
56599;SDS011;51832;48.152;11.530;2023-01-04T23:25:17;1.00;;;0.60;;
56599;SDS011;51832;48.152;11.530;2023-01-04T23:30:18;0.85;;;0.60;;
56599;SDS011;51832;48.152;11.530;2023-01-04T23:35:19;0.60;;;0.52;;
56599;SDS011;51832;48.152;11.530;2023-01-04T23:40:19;0.40;;;0.40;;
56599;SDS011;51832;48.152;11.530;2023-01-04T23:45:20;0.50;;;0.50;;
56599;SDS011;51832;48.152;11.530;2023-01-04T23:50:23;0.40;;;0.40;;
56599;SDS011;51832;48.152;11.530;2023-01-04T23:55:24;0.43;;;0.43;;
